Terminal Aerodrome Forecast
Issued by NWS

Home | Current Version | Previous Version | Text Only | Print | Product List | Glossary On
Versions: 1 2 3 4 5 6 7 8 9 10 11 12 13
000
FTUS46 KHNX 272339
TAFFAT
TAF
KFAT 272339Z 2800/2824 VRB03KT P6SM SCT200
     FM280800 00000KT 5SM BR SCT200
     FM282100 VRB03KT P6SM FEW150=

USA.gov is the U.S. government's official web portal to all federal, state and local government web resources and services.